Terminal Aerodrome Forecast
Issued by NWS

Home | Current Version | Previous Version | Text Only | Print | Product List | Glossary On
Versions: 1 2 3 4 5 6 7 8 9 10 11 12 13 14 15 16 17 18 19
000
FTUS42 KJAX 250500
TAFCRG
TAF
KCRG 250535Z 2506/2606 19005KT P6SM FEW050
     FM251400 26009KT P6SM SCT250
     FM251900 24012KT P6SM SCT060 SCT250
     FM260000 22008KT P6SM SCT250=

USA.gov is the U.S. government's official web portal to all federal, state and local government web resources and services.